Дата Пункты Температура Давл., мм. Влажн., % Ветер Погодные явления
Воздуха Воды Направл. Скорость
09.09.18 12:00 Одесса 22.0 22.0 756 65 С-З 2 12 ЧАСОВ
09.09.18 09:00 Одесса 18.0 22.0 756 75 С-З 3 09 ЧАСОВ
09.09.18 06:00 Одесса 15.0 22.0 756 88 С-З 2 06 ЧАСОВ
09.09.18 03:00 Одесса 16.0 22.0 756 88 С-З 1 03 ЧАСА
08.09.18 09:00 Одесса 17.0 22.0 757 86 С-З 2 21 ЧАС
08.09.18 06:00 Одесса 18.0 22.0 756 80 С-З 1 18 ЧАСОВ
08.09.18 03:00 Одесса 18.0 22.0 756 79 С-З 2 15 ЧАСОВ
08.09.18 12:00 Одесса 18.0 22.0 755 82 С 2 12 ЧАСОВ
08.09.18 09:00 Одесса 17.0 22.0 754 92 С 2 09 ЧАСОВ
08.09.18 06:00 Одесса 16.0 22.0 754 90 С-З 1 06 ЧАСОВ
08.09.18 03:00 Одесса 16.0 22.0 754 87 С-З 1 03 ЧАСА
07.09.18 09:00 Одесса 17.0 21.0 754 84 С-З 3 21 ЧАС
07.09.18 06:00 Одесса 18.0 23.0 753 85 С-З 2 18 ЧАСОВ
07.09.18 03:00 Одесса 21.0 23.0 752 69 С 1 15 ЧАСОВ
07.09.18 12:00 Одесса 20.0 23.0 751 75 С 2 12 ЧАСОВ
07.09.18 09:00 Одесса 19.0 23.0 750 83 С 3 09 ЧАСОВ
07.09.18 06:00 Одесса 19.0 22.0 750 81 С 3 06 ЧАСОВ
07.09.18 03:00 Одесса 19.0 22.0 750 81 С-З 3 03 ЧАСА
06.09.18 09:00 Одесса 19.0 23.0 752 98 С 2 21 ЧАС
06.09.18 06:00 Одесса 20.0 23.0 751 89 Ю-З 3 18 ЧАСОВ
Количество строк
1 2 3 4 5 6 7 8 9 10
Page 6 of 407